createdAt,value
2018-05-12T00:00:54.334Z,101073.45
2018-05-12T00:03:22.744Z,101072.14
2018-05-12T00:05:51.216Z,101073.02
2018-05-12T00:08:19.542Z,101069.04
2018-05-12T00:10:47.929Z,101072.50
2018-05-12T00:13:16.322Z,101071.11
2018-05-12T00:15:45.473Z,101072.74
2018-05-12T00:18:13.952Z,101074.84
2018-05-12T00:20:42.354Z,101076.52
2018-05-12T00:23:10.734Z,101070.78
2018-05-12T00:25:39.117Z,101068.97
2018-05-12T00:28:07.516Z,101074.54
2018-05-12T00:30:35.898Z,101070.56
2018-05-12T00:33:04.307Z,101066.63
2018-05-12T00:35:33.473Z,101067.05
2018-05-12T00:38:01.928Z,101069.20
2018-05-12T00:40:30.318Z,101067.37
2018-05-12T00:42:58.737Z,101069.84
2018-05-12T00:45:27.106Z,101073.65
2018-05-12T00:47:55.515Z,101063.55
2018-05-12T00:50:24.019Z,101063.94
2018-05-12T00:52:53.208Z,101063.94
2018-05-12T00:55:21.555Z,101068.22
2018-05-12T00:57:50.714Z,101061.58
2018-05-12T01:00:19.119Z,101065.09
2018-05-12T01:02:47.563Z,101064.14
2018-05-12T01:05:17.351Z,101054.98
2018-05-12T01:07:45.730Z,101053.16
2018-05-12T01:10:14.974Z,101051.72
2018-05-12T01:12:43.379Z,101056.02
2018-05-12T01:15:11.787Z,101052.89
2018-05-12T01:17:40.183Z,101054.12
2018-05-12T01:20:08.686Z,101051.45
2018-05-12T01:22:37.198Z,101048.75
2018-05-12T01:25:06.420Z,101046.01
2018-05-12T01:27:34.805Z,101044.13
2018-05-12T01:30:03.209Z,101035.45
2018-05-12T01:32:31.610Z,101038.05
2018-05-12T01:35:00.122Z,101043.58
2018-05-12T01:37:29.285Z,101040.93
2018-05-12T01:39:57.690Z,101041.25
2018-05-12T01:42:26.090Z,101040.23
2018-05-12T01:44:55.285Z,101038.39
2018-05-12T01:47:24.505Z,101036.50
2018-05-12T01:49:53.678Z,101035.63
2018-05-12T01:52:22.061Z,101032.50
2018-05-12T01:54:50.455Z,101042.83
2018-05-12T01:57:18.845Z,101039.80
2018-05-12T01:59:48.002Z,101036.59
2018-05-12T02:02:16.384Z,101037.89
2018-05-12T02:04:44.952Z,101036.95
2018-05-12T02:07:13.438Z,101043.20
2018-05-12T02:09:41.826Z,101041.41
2018-05-12T02:12:10.214Z,101037.89
2018-05-12T02:14:38.618Z,101029.70
2018-05-12T02:17:07.133Z,101031.88
2018-05-12T02:19:35.621Z,101034.61
2018-05-12T02:22:04.806Z,101032.55
2018-05-12T02:24:33.190Z,101039.16
2018-05-12T02:27:01.606Z,101035.02
2018-05-12T02:29:30.070Z,101041.15
2018-05-12T02:31:59.236Z,101040.38
2018-05-12T02:34:27.617Z,101034.33
2018-05-12T02:36:56.770Z,101034.47
2018-05-12T02:39:25.142Z,101034.91
2018-05-12T02:41:54.298Z,101042.33
2018-05-12T02:44:23.445Z,101037.95
2018-05-12T02:46:52.613Z,101036.64
2018-05-12T02:49:21.091Z,101034.86
2018-05-12T02:51:49.545Z,101036.11
2018-05-12T02:54:17.947Z,101036.48
2018-05-12T02:56:46.330Z,101039.04
2018-05-12T02:59:14.726Z,101034.16
2018-05-12T03:01:43.125Z,101031.98
2018-05-12T03:04:11.539Z,101030.92
2018-05-12T03:06:40.679Z,101032.55
2018-05-12T03:09:09.068Z,101039.42
2018-05-12T03:11:38.452Z,101033.36
2018-05-12T03:14:06.835Z,101035.89
2018-05-12T03:16:35.241Z,101035.09
2018-05-12T03:19:03.635Z,101036.40
2018-05-12T03:21:32.017Z,101038.98
2018-05-12T03:24:00.405Z,101037.68
2018-05-12T03:26:30.311Z,101039.86
2018-05-12T03:28:58.734Z,101037.58
2018-05-12T03:31:27.883Z,101036.33
2018-05-12T03:33:56.305Z,101044.99
2018-05-12T03:36:24.685Z,101038.02
2018-05-12T03:38:53.078Z,101032.81
2018-05-12T03:41:22.302Z,101032.48
2018-05-12T03:43:51.455Z,101034.59
2018-05-12T03:46:19.866Z,101031.23
2018-05-12T03:48:49.065Z,101038.69
2018-05-12T03:51:17.481Z,101039.53
2018-05-12T03:53:45.877Z,101044.58
2018-05-12T03:56:14.335Z,101040.61
2018-05-12T03:58:43.666Z,101045.63
2018-05-12T04:01:12.077Z,101050.34
2018-05-12T04:03:40.467Z,101056.83
2018-05-12T04:06:26.439Z,101050.87
2018-05-12T04:09:12.496Z,101053.91
2018-05-12T04:11:58.586Z,101046.25
2018-05-12T04:14:26.972Z,101048.15
2018-05-12T04:16:55.351Z,101045.72
2018-05-12T04:19:23.765Z,101050.26
2018-05-12T04:21:52.158Z,101050.05
2018-05-12T04:24:20.545Z,101043.40
2018-05-12T04:26:48.931Z,101045.28
2018-05-12T04:29:17.391Z,101041.81
2018-05-12T04:31:46.601Z,101043.08
2018-05-12T04:34:15.025Z,101039.59
2018-05-12T04:36:44.222Z,101044.80
2018-05-12T04:39:13.377Z,101042.59
2018-05-12T04:41:41.762Z,101043.06
2018-05-12T04:44:10.175Z,101045.29
2018-05-12T04:46:38.550Z,101050.72
2018-05-12T04:49:06.952Z,101051.25
2018-05-12T04:51:36.110Z,101052.55
2018-05-12T04:54:04.514Z,101041.73
2018-05-12T04:56:32.954Z,101047.03
2018-05-12T04:59:01.418Z,101043.69
2018-05-12T05:01:30.566Z,101037.28
2018-05-12T05:03:58.965Z,101039.53
2018-05-12T05:06:27.346Z,101040.17
2018-05-12T05:08:55.725Z,101038.63
2018-05-12T05:14:00.163Z,101041.94
2018-05-12T05:16:28.649Z,101045.03
2018-05-12T05:18:57.056Z,101039.50
2018-05-12T05:21:25.462Z,101044.81
2018-05-12T05:23:54.609Z,101044.10
2018-05-12T05:26:22.981Z,101044.97
2018-05-12T05:28:51.401Z,101051.95
2018-05-12T05:31:20.049Z,101043.33
2018-05-12T05:33:48.450Z,101044.20
2018-05-12T05:36:17.627Z,101048.59
2018-05-12T05:38:46.009Z,101053.44
2018-05-12T05:41:14.393Z,101051.67
2018-05-12T05:43:42.798Z,101049.95
2018-05-12T05:46:11.182Z,101051.71
2018-05-12T05:48:40.347Z,101056.52
2018-05-12T05:51:08.768Z,101053.92
2018-05-12T05:53:37.187Z,101055.69
2018-05-12T05:56:05.561Z,101049.53
2018-05-12T05:58:34.824Z,101055.20
2018-05-12T06:01:03.159Z,101055.17
2018-05-12T06:03:31.691Z,101057.32
2018-05-12T06:06:00.094Z,101055.09
2018-05-12T06:08:28.475Z,101058.58
2018-05-12T06:10:56.987Z,101059.38
2018-05-12T06:13:25.361Z,101051.89
2018-05-12T06:15:53.755Z,101046.60
2018-05-12T06:18:22.142Z,101051.29
2018-05-12T06:20:50.541Z,101052.48
2018-05-12T06:23:19.693Z,101046.80
2018-05-12T06:25:48.151Z,101044.66
2018-05-12T06:28:16.546Z,101045.48
2018-05-12T06:30:44.967Z,101046.68
2018-05-12T06:33:13.351Z,101038.85
2018-05-12T06:35:41.790Z,101040.31
2018-05-12T06:38:10.217Z,101040.34
2018-05-12T06:40:38.580Z,101040.30
2018-05-12T06:43:06.977Z,101047.10
2018-05-12T06:45:36.346Z,101042.67
2018-05-12T06:48:04.741Z,101042.34
2018-05-12T06:50:33.128Z,101046.48
2018-05-12T06:53:01.557Z,101042.42
2018-05-12T06:55:29.933Z,101045.27
2018-05-12T06:57:58.354Z,101038.97
2018-05-12T07:00:26.744Z,101040.77
2018-05-12T07:02:56.126Z,101034.64
2018-05-12T07:05:24.533Z,101033.02
2018-05-12T07:07:52.958Z,101035.16
2018-05-12T07:10:21.341Z,101029.37
2018-05-12T07:12:50.503Z,101024.73
2018-05-12T07:15:18.962Z,101029.04
2018-05-12T07:17:48.188Z,101025.94
2018-05-12T07:20:16.577Z,101022.17
2018-05-12T07:22:44.959Z,101023.34
2018-05-12T07:25:13.436Z,101018.94
2018-05-12T07:27:41.831Z,101024.39
2018-05-12T07:30:10.286Z,101029.19
2018-05-12T07:32:39.434Z,101026.92
2018-05-12T07:35:07.844Z,101024.34
2018-05-12T07:37:36.355Z,101029.55
2018-05-12T07:40:05.530Z,101030.49
2018-05-12T07:42:33.939Z,101029.09
2018-05-12T07:45:03.131Z,101019.30
2018-05-12T07:47:31.499Z,101019.56
2018-05-12T07:49:59.918Z,101016.61
2018-05-12T07:52:28.330Z,101018.91
2018-05-12T07:54:56.721Z,101016.73
2018-05-12T07:57:25.195Z,101020.64
2018-05-12T07:59:53.642Z,101020.55
2018-05-12T08:02:22.825Z,101013.63
2018-05-12T08:04:51.268Z,101009.22
2018-05-12T08:07:19.658Z,101011.98
2018-05-12T08:09:48.125Z,101000.41
2018-05-12T08:12:16.503Z,101002.17
2018-05-12T08:14:44.900Z,100998.06
2018-05-12T08:17:13.283Z,100993.53
2018-05-12T08:19:41.710Z,100994.48
2018-05-12T08:22:10.110Z,100992.50
2018-05-12T08:24:39.310Z,100991.59
2018-05-12T08:27:08.450Z,100991.11
2018-05-12T08:29:36.831Z,100988.31
2018-05-12T08:32:05.217Z,100985.58
2018-05-12T08:34:33.641Z,100982.86
2018-05-12T08:37:02.033Z,100983.81
2018-05-12T08:39:30.507Z,100990.35
2018-05-12T08:41:58.915Z,100974.95
2018-05-12T08:44:28.068Z,100981.33
2018-05-12T08:46:56.457Z,100977.35
2018-05-12T08:49:25.607Z,100969.78
2018-05-12T08:51:55.703Z,100969.25
2018-05-12T08:54:24.120Z,100971.48
2018-05-12T08:56:53.254Z,100968.60
2018-05-12T08:59:21.623Z,100962.00
2018-05-12T09:01:50.097Z,100964.20
2018-05-12T09:04:18.559Z,100953.83
2018-05-12T09:06:47.756Z,100950.46
2018-05-12T09:09:16.293Z,100952.31
2018-05-12T09:11:44.698Z,100954.26
2018-05-12T09:14:13.093Z,100952.19
2018-05-12T09:16:41.477Z,100945.23
2018-05-12T09:19:09.906Z,100952.38
2018-05-12T09:21:38.297Z,100942.23
2018-05-12T09:24:06.754Z,100947.53
2018-05-12T09:26:35.906Z,100940.70
2018-05-12T09:29:04.333Z,100941.50
2018-05-12T09:31:33.502Z,100936.39
2018-05-12T09:34:01.885Z,100930.27
2018-05-12T09:36:30.274Z,100927.30
2018-05-12T09:38:58.652Z,100936.15
2018-05-12T09:41:27.812Z,100932.07
2018-05-12T09:43:56.191Z,100926.81
2018-05-12T09:46:24.602Z,100928.80
2018-05-12T09:48:53.003Z,100927.70
2018-05-12T09:51:21.405Z,100931.70
2018-05-12T09:53:49.818Z,100921.83
2018-05-12T09:56:18.428Z,100908.94
2018-05-12T09:58:46.816Z,100905.68
2018-05-12T10:01:15.205Z,100901.84
2018-05-12T10:03:44.207Z,100902.22
2018-05-12T10:06:12.662Z,100899.73
2018-05-12T10:08:41.052Z,100900.81
2018-05-12T10:11:09.445Z,100891.64
2018-05-12T10:13:37.836Z,100892.64
2018-05-12T10:16:06.215Z,100886.73
2018-05-12T10:18:34.598Z,100893.33
2018-05-12T10:21:02.979Z,100885.38
2018-05-12T10:23:31.413Z,100887.54
2018-05-12T10:25:59.822Z,100880.95
2018-05-12T10:28:28.972Z,100876.53
2018-05-12T10:30:57.373Z,100879.50
2018-05-12T10:33:25.746Z,100873.30
2018-05-12T10:35:54.193Z,100881.11
2018-05-12T10:38:22.586Z,100875.67
2018-05-12T10:40:50.989Z,100877.20
2018-05-12T10:43:19.374Z,100867.61
2018-05-12T10:45:47.785Z,100869.09
2018-05-12T10:48:16.954Z,100869.47
2018-05-12T10:50:45.351Z,100860.78
2018-05-12T10:53:13.770Z,100862.03
2018-05-12T10:55:42.938Z,100853.60
2018-05-12T10:58:11.367Z,100851.66
2018-05-12T11:00:39.755Z,100848.64
2018-05-12T11:03:08.558Z,100843.58
2018-05-12T11:05:36.970Z,100840.87
2018-05-12T11:08:05.381Z,100826.72
2018-05-12T11:10:34.526Z,100838.06
2018-05-12T11:13:02.979Z,100833.06
2018-05-12T11:15:32.213Z,100824.92
2018-05-12T11:18:00.697Z,100826.04
2018-05-12T11:20:29.084Z,100820.56
2018-05-12T11:22:57.481Z,100818.72
2018-05-12T11:25:25.875Z,100819.48
2018-05-12T11:27:54.271Z,100812.11
2018-05-12T11:30:22.650Z,100814.83
2018-05-12T11:32:51.082Z,100814.44
2018-05-12T11:35:19.490Z,100809.22
2018-05-12T11:37:47.889Z,100809.42
2018-05-12T11:40:16.324Z,100802.58
2018-05-12T11:42:45.494Z,100806.61
2018-05-12T11:45:13.870Z,100801.10
2018-05-12T11:47:42.327Z,100788.11
2018-05-12T11:50:10.793Z,100786.84
2018-05-12T11:52:39.118Z,100786.23
2018-05-12T11:55:07.503Z,100782.08
2018-05-12T11:57:35.878Z,100786.53
2018-05-12T12:00:04.390Z,100783.92
2018-05-12T12:02:32.805Z,100780.91
2018-05-12T12:05:01.168Z,100778.44
2018-05-12T12:07:30.400Z,100778.66
2018-05-12T12:09:58.789Z,100773.33
2018-05-12T12:12:27.173Z,100766.06
2018-05-12T12:14:55.782Z,100766.56
2018-05-12T12:17:24.192Z,100768.34
2018-05-12T12:19:52.658Z,100767.23
2018-05-12T12:22:21.034Z,100770.50
2018-05-12T12:24:49.432Z,100769.21
2018-05-12T12:27:17.786Z,100763.45
2018-05-12T12:29:46.297Z,100756.98
2018-05-12T12:32:15.499Z,100764.19
2018-05-12T12:34:43.991Z,100754.03
2018-05-12T12:37:12.382Z,100754.52
2018-05-12T12:39:40.761Z,100752.73
2018-05-12T12:42:09.149Z,100754.00
2018-05-12T12:44:37.526Z,100752.13
2018-05-12T12:47:05.934Z,100752.88
2018-05-12T12:49:35.204Z,100740.53
2018-05-12T12:52:03.520Z,100739.38
2018-05-12T12:54:32.708Z,100733.22
2018-05-12T12:57:01.122Z,100733.30
2018-05-12T12:59:29.525Z,100730.32
2018-05-12T13:01:57.913Z,100730.67
2018-05-12T13:04:26.588Z,100719.92
2018-05-12T13:06:54.977Z,100720.91
2018-05-12T13:09:23.378Z,100714.45
2018-05-12T13:11:51.798Z,100710.16
2018-05-12T13:14:20.198Z,100709.70
2018-05-12T13:16:49.337Z,100710.75
2018-05-12T13:19:17.706Z,100701.16
2018-05-12T13:21:46.108Z,100702.84
2018-05-12T13:24:14.500Z,100699.38
2018-05-12T13:26:42.882Z,100699.45
2018-05-12T13:29:11.253Z,100698.13
2018-05-12T13:31:39.670Z,100693.98
2018-05-12T13:34:08.066Z,100689.06
2018-05-12T13:36:36.479Z,100688.42
2018-05-12T13:39:04.910Z,100694.95
2018-05-12T13:41:33.339Z,100689.94
2018-05-12T13:44:01.789Z,100686.00
2018-05-12T13:46:30.158Z,100683.80
2018-05-12T13:48:58.553Z,100673.05
2018-05-12T13:51:26.893Z,100674.37
2018-05-12T13:53:55.275Z,100675.45
2018-05-12T13:56:23.638Z,100676.41
2018-05-12T13:58:52.774Z,100665.27
2018-05-12T14:01:21.145Z,100668.70
2018-05-12T14:03:49.608Z,100659.62
2018-05-12T14:06:18.810Z,100668.51
2018-05-12T14:08:47.967Z,100654.67
2018-05-12T14:11:16.352Z,100654.55
2018-05-12T14:13:44.733Z,100655.88
2018-05-12T14:16:13.120Z,100657.72
2018-05-12T14:18:41.506Z,100665.05
2018-05-12T14:21:09.918Z,100663.35
2018-05-12T14:23:39.098Z,100663.55
2018-05-12T14:26:07.482Z,100658.44
2018-05-12T14:28:35.885Z,100660.12
2018-05-12T14:31:05.074Z,100652.38
2018-05-12T14:33:33.445Z,100646.52
2018-05-12T14:36:02.723Z,100641.32
2018-05-12T14:38:31.125Z,100643.77
2018-05-12T14:40:59.493Z,100647.88
2018-05-12T14:43:27.885Z,100640.11
2018-05-12T14:45:57.066Z,100640.73
2018-05-12T14:48:25.539Z,100640.54
2018-05-12T14:50:53.927Z,100635.63
2018-05-12T14:53:22.395Z,100635.61
2018-05-12T14:55:51.562Z,100636.81
2018-05-12T14:58:20.001Z,100639.88
2018-05-12T15:00:48.385Z,100635.84
2018-05-12T15:03:16.765Z,100631.16
2018-05-12T15:05:45.144Z,100627.53
2018-05-12T15:08:13.528Z,100622.11
2018-05-12T15:10:41.918Z,100614.97
2018-05-12T15:13:10.345Z,100618.37
2018-05-12T15:15:38.738Z,100618.16
2018-05-12T15:18:07.146Z,100622.78
2018-05-12T15:20:35.532Z,100611.17
2018-05-12T15:23:03.898Z,100605.27
2018-05-12T15:25:33.039Z,100608.44
2018-05-12T15:28:01.402Z,100602.79
2018-05-12T15:30:29.789Z,100599.14
2018-05-12T15:32:58.201Z,100600.78
2018-05-12T15:35:26.586Z,100596.22
2018-05-12T15:37:55.826Z,100592.88
2018-05-12T15:40:24.913Z,100590.27
2018-05-12T15:42:53.325Z,100592.32
2018-05-12T15:45:22.474Z,100588.65
2018-05-12T15:47:51.616Z,100583.22
2018-05-12T15:50:20.833Z,100586.41
2018-05-12T15:52:49.204Z,100581.98
2018-05-12T15:55:18.385Z,100582.47
2018-05-12T15:57:46.797Z,100572.39
2018-05-12T16:00:15.934Z,100570.21
2018-05-12T16:02:44.325Z,100562.67
2018-05-12T16:05:12.714Z,100562.56
2018-05-12T16:07:41.086Z,100562.27
2018-05-12T16:10:09.505Z,100559.80
2018-05-12T16:12:37.914Z,100558.84
2018-05-12T16:15:07.236Z,100558.95
2018-05-12T16:17:35.600Z,100552.03
2018-05-12T16:20:04.745Z,100550.77
2018-05-12T16:22:33.144Z,100544.48
2018-05-12T16:25:02.293Z,100543.84
2018-05-12T16:27:30.679Z,100544.15
2018-05-12T16:29:59.841Z,100535.67
2018-05-12T16:32:28.226Z,100534.28
2018-05-12T16:34:56.602Z,100528.48
2018-05-12T16:37:24.999Z,100533.97
2018-05-12T16:39:53.389Z,100531.64
2018-05-12T16:42:22.579Z,100532.48
2018-05-12T16:44:51.005Z,100526.17
2018-05-12T16:47:19.389Z,100525.20
2018-05-12T16:49:47.776Z,100518.42
2018-05-12T16:52:16.176Z,100519.38
2018-05-12T16:54:44.594Z,100515.43
2018-05-12T16:57:12.986Z,100515.57
2018-05-12T16:59:41.440Z,100514.71
2018-05-12T17:02:09.821Z,100509.88
2018-05-12T17:04:38.222Z,100509.48
2018-05-12T17:07:06.626Z,100510.44
2018-05-12T17:09:35.762Z,100508.92
2018-05-12T17:12:04.156Z,100508.74
2018-05-12T17:14:32.574Z,100509.95
2018-05-12T17:17:00.989Z,100502.28
2018-05-12T17:19:30.170Z,100507.22
2018-05-12T17:21:58.697Z,100500.19
2018-05-12T17:24:27.074Z,100501.11
2018-05-12T17:26:55.463Z,100500.95
2018-05-12T17:29:23.849Z,100488.53
2018-05-12T17:31:52.234Z,100497.15
2018-05-12T17:34:20.658Z,100490.72
2018-05-12T17:36:49.097Z,100490.41
2018-05-12T17:39:17.474Z,100490.93
2018-05-12T17:41:45.861Z,100493.62
2018-05-12T17:44:14.259Z,100493.14
2018-05-12T17:46:42.650Z,100494.75
2018-05-12T17:49:11.033Z,100490.51
2018-05-12T17:51:39.456Z,100486.96
2018-05-12T17:54:07.905Z,100484.05
2018-05-12T17:56:36.384Z,100486.83
2018-05-12T17:59:04.785Z,100482.38
2018-05-12T18:01:33.159Z,100481.03
2018-05-12T18:04:01.599Z,100480.42
2018-05-12T18:06:30.053Z,100476.71
2018-05-12T18:08:58.438Z,100478.58
2018-05-12T18:11:26.869Z,100471.20
2018-05-12T18:13:56.083Z,100476.70
2018-05-12T18:16:24.478Z,100481.86
2018-05-12T18:18:53.614Z,100477.03
2018-05-12T18:21:22.009Z,100483.50
2018-05-12T18:23:50.398Z,100479.80
2018-05-12T18:26:19.565Z,100482.25
2018-05-12T18:28:48.713Z,100477.66
2018-05-12T18:31:17.848Z,100475.77
2018-05-12T18:33:46.250Z,100475.12
2018-05-12T18:36:14.665Z,100470.52
2018-05-12T18:38:43.054Z,100470.91
2018-05-12T18:41:12.257Z,100468.30
2018-05-12T18:43:41.418Z,100470.87
2018-05-12T18:46:10.624Z,100467.91
2018-05-12T18:48:39.769Z,100471.88
2018-05-12T18:51:08.163Z,100475.38
2018-05-12T18:53:37.323Z,100478.78
2018-05-12T18:56:05.822Z,100477.97
2018-05-12T18:58:34.957Z,100480.61
2018-05-12T19:01:03.357Z,100480.17
2018-05-12T19:03:31.722Z,100480.73
2018-05-12T19:06:00.128Z,100474.94
2018-05-12T19:08:28.569Z,100476.69
2018-05-12T19:10:56.897Z,100479.12
2018-05-12T19:13:26.066Z,100471.97
2018-05-12T19:15:54.451Z,100479.30
2018-05-12T19:18:23.001Z,100483.28
2018-05-12T19:20:51.387Z,100481.72
2018-05-12T19:23:19.795Z,100481.91
2018-05-12T19:25:48.284Z,100482.94
2018-05-12T19:28:16.710Z,100482.58
2018-05-12T19:30:45.108Z,100479.99
2018-05-12T19:33:13.523Z,100481.77
2018-05-12T19:35:42.683Z,100480.78
2018-05-12T19:38:11.095Z,100479.27
2018-05-12T19:40:40.287Z,100483.43
2018-05-12T19:43:08.693Z,100491.16
2018-05-12T19:45:37.948Z,100483.45
2018-05-12T19:48:06.349Z,100485.78
2018-05-12T19:50:34.761Z,100484.37
2018-05-12T19:53:03.929Z,100486.55
2018-05-12T19:55:32.323Z,100485.52
2018-05-12T19:58:00.723Z,100487.85
2018-05-12T20:00:29.879Z,100486.38
2018-05-12T20:02:58.292Z,100483.86
2018-05-12T20:05:26.745Z,100487.35
2018-05-12T20:07:55.172Z,100481.75
2018-05-12T20:10:23.584Z,100481.52
2018-05-12T20:12:51.986Z,100487.39
2018-05-12T20:15:20.421Z,100480.09
2018-05-12T20:17:48.810Z,100487.87
2018-05-12T20:20:18.177Z,100487.82
2018-05-12T20:22:46.594Z,100490.00
2018-05-12T20:25:15.029Z,100493.62
2018-05-12T20:27:43.401Z,100489.83
2018-05-12T20:30:11.802Z,100499.59
2018-05-12T20:32:41.043Z,100491.89
2018-05-12T20:35:09.453Z,100492.89
2018-05-12T20:37:38.638Z,100482.92
2018-05-12T20:40:07.800Z,100484.63
2018-05-12T20:42:36.969Z,100486.76
2018-05-12T20:45:05.373Z,100482.80
2018-05-12T20:47:33.785Z,100481.06
2018-05-12T20:50:02.199Z,100481.11
2018-05-12T20:52:31.369Z,100476.80
2018-05-12T20:54:59.872Z,100477.77
2018-05-12T20:57:28.190Z,100478.77
2018-05-12T20:59:56.589Z,100476.18
2018-05-12T21:02:24.977Z,100481.55
2018-05-12T21:04:53.371Z,100478.61
2018-05-12T21:07:21.771Z,100482.98
2018-05-12T21:09:50.184Z,100483.02
2018-05-12T21:12:19.355Z,100480.87
2018-05-12T21:14:47.743Z,100475.63
2018-05-12T21:17:16.141Z,100480.05
2018-05-12T21:19:45.319Z,100474.41
2018-05-12T21:22:13.790Z,100475.78
2018-05-12T21:24:42.243Z,100472.73
2018-05-12T21:27:10.642Z,100478.44
2018-05-12T21:29:39.044Z,100475.84
2018-05-12T21:32:07.429Z,100476.70
2018-05-12T21:34:35.847Z,100472.28
2018-05-12T21:37:04.284Z,100469.25
2018-05-12T21:39:32.676Z,100474.98
2018-05-12T21:42:01.083Z,100465.02
2018-05-12T21:44:30.287Z,100469.89
2018-05-12T21:46:58.706Z,100474.69
2018-05-12T21:49:27.126Z,100469.51
2018-05-12T21:51:55.533Z,100469.14
2018-05-12T21:54:23.958Z,100472.23
2018-05-12T21:56:52.369Z,100468.83
2018-05-12T21:59:20.756Z,100471.05
2018-05-12T22:01:49.998Z,100473.29
2018-05-12T22:04:18.418Z,100468.55
2018-05-12T22:06:46.942Z,100467.69
2018-05-12T22:09:15.357Z,100467.72
2018-05-12T22:11:44.503Z,100471.27
2018-05-12T22:14:12.877Z,100471.30
2018-05-12T22:16:41.292Z,100470.46
2018-05-12T22:19:09.694Z,100468.31
2018-05-12T22:21:38.121Z,100472.28
2018-05-12T22:24:06.533Z,100469.27
2018-05-12T22:26:34.999Z,100464.50
2018-05-12T22:29:03.408Z,100466.30
2018-05-12T22:31:31.826Z,100462.88
2018-05-12T22:34:00.994Z,100456.39
2018-05-12T22:36:29.413Z,100457.77
2018-05-12T22:38:57.853Z,100452.92
2018-05-12T22:41:26.377Z,100451.20
2018-05-12T22:43:54.799Z,100450.41
2018-05-12T22:46:23.193Z,100446.92
2018-05-12T22:48:51.593Z,100442.19
2018-05-12T22:51:20.013Z,100447.84
2018-05-12T22:53:49.217Z,100446.20
2018-05-12T22:56:17.613Z,100433.57
2018-05-12T22:58:47.022Z,100434.95
2018-05-12T23:01:16.178Z,100436.66
2018-05-12T23:03:44.575Z,100432.38
2018-05-12T23:06:12.962Z,100423.69
2018-05-12T23:08:41.379Z,100433.27
2018-05-12T23:11:09.778Z,100432.44
2018-05-12T23:13:38.185Z,100433.30
2018-05-12T23:16:06.605Z,100431.58
2018-05-12T23:18:35.778Z,100435.94
2018-05-12T23:21:04.189Z,100439.88
2018-05-12T23:23:33.353Z,100439.48
2018-05-12T23:26:01.746Z,100437.75
2018-05-12T23:28:30.163Z,100435.62
2018-05-12T23:30:59.298Z,100440.45
2018-05-12T23:33:27.675Z,100437.39
2018-05-12T23:35:56.074Z,100430.00
2018-05-12T23:38:24.446Z,100425.69
2018-05-12T23:40:52.849Z,100429.61
2018-05-12T23:43:21.246Z,100426.58
2018-05-12T23:45:49.638Z,100430.07
2018-05-12T23:48:18.037Z,100431.84
2018-05-12T23:50:46.425Z,100425.34
2018-05-12T23:53:15.602Z,100422.70
2018-05-12T23:55:43.989Z,100416.12
2018-05-12T23:58:12.463Z,100415.19
